sensor_id;sensor_type;location;lat;lon;timestamp;pressure;altitude;pressure_sealevel;temperature
56286;BMP180;42191;47.562;9.686;2022-07-29T00:00:59;96819.00;;;22.40
56286;BMP180;42191;47.562;9.686;2022-07-29T00:03:26;96816.00;;;22.40
56286;BMP180;42191;47.562;9.686;2022-07-29T00:05:53;96812.00;;;22.40
56286;BMP180;42191;47.562;9.686;2022-07-29T00:08:19;96813.00;;;22.40
56286;BMP180;42191;47.562;9.686;2022-07-29T00:13:15;96816.00;;;22.40
56286;BMP180;42191;47.562;9.686;2022-07-29T00:15:41;96805.00;;;22.40
56286;BMP180;42191;47.562;9.686;2022-07-29T00:18:08;96805.00;;;22.40
56286;BMP180;42191;47.562;9.686;2022-07-29T00:20:34;96794.00;;;22.40
56286;BMP180;42191;47.562;9.686;2022-07-29T00:23:00;96796.00;;;22.40
56286;BMP180;42191;47.562;9.686;2022-07-29T00:25:26;96790.00;;;22.40
56286;BMP180;42191;47.562;9.686;2022-07-29T00:27:52;96797.00;;;22.40
56286;BMP180;42191;47.562;9.686;2022-07-29T00:30:18;96791.00;;;22.40
56286;BMP180;42191;47.562;9.686;2022-07-29T00:32:44;96786.00;;;22.40
56286;BMP180;42191;47.562;9.686;2022-07-29T00:35:10;96789.00;;;22.40
56286;BMP180;42191;47.562;9.686;2022-07-29T00:37:55;96784.00;;;22.40
56286;BMP180;42191;47.562;9.686;2022-07-29T00:40:21;96784.00;;;22.30
56286;BMP180;42191;47.562;9.686;2022-07-29T00:42:49;96783.00;;;22.30
56286;BMP180;42191;47.562;9.686;2022-07-29T00:45:16;96781.00;;;22.30
56286;BMP180;42191;47.562;9.686;2022-07-29T00:47:42;96786.00;;;22.30
56286;BMP180;42191;47.562;9.686;2022-07-29T00:50:10;96764.00;;;22.30
56286;BMP180;42191;47.562;9.686;2022-07-29T00:52:38;96774.00;;;22.30
56286;BMP180;42191;47.562;9.686;2022-07-29T00:55:05;96774.00;;;22.20
56286;BMP180;42191;47.562;9.686;2022-07-29T00:57:32;96773.00;;;22.20
56286;BMP180;42191;47.562;9.686;2022-07-29T00:59:59;96776.00;;;22.20
56286;BMP180;42191;47.562;9.686;2022-07-29T01:02:25;96784.00;;;22.20
56286;BMP180;42191;47.562;9.686;2022-07-29T01:04:51;96769.00;;;22.20
56286;BMP180;42191;47.562;9.686;2022-07-29T01:07:18;96781.00;;;22.20
56286;BMP180;42191;47.562;9.686;2022-07-29T01:09:45;96772.00;;;22.20
56286;BMP180;42191;47.562;9.686;2022-07-29T01:12:17;96775.00;;;22.20
56286;BMP180;42191;47.562;9.686;2022-07-29T01:14:44;96766.00;;;22.30
56286;BMP180;42191;47.562;9.686;2022-07-29T01:17:57;96766.00;;;22.30
56286;BMP180;42191;47.562;9.686;2022-07-29T01:23:25;96754.00;;;22.30
56286;BMP180;42191;47.562;9.686;2022-07-29T01:31:41;96750.00;;;22.30
56286;BMP180;42191;47.562;9.686;2022-07-29T01:34:11;96756.00;;;22.30
56286;BMP180;42191;47.562;9.686;2022-07-29T01:39:36;96744.00;;;22.30
56286;BMP180;42191;47.562;9.686;2022-07-29T01:42:09;96752.00;;;22.20
56286;BMP180;42191;47.562;9.686;2022-07-29T01:47:19;96744.00;;;22.20
56286;BMP180;42191;47.562;9.686;2022-07-29T01:49:49;96739.00;;;22.20
56286;BMP180;42191;47.562;9.686;2022-07-29T01:52:26;96734.00;;;22.20
56286;BMP180;42191;47.562;9.686;2022-07-29T01:54:55;96734.00;;;22.20
56286;BMP180;42191;47.562;9.686;2022-07-29T01:57:27;96733.00;;;22.10
56286;BMP180;42191;47.562;9.686;2022-07-29T01:59:56;96732.00;;;22.10
56286;BMP180;42191;47.562;9.686;2022-07-29T02:02:23;96743.00;;;22.10
56286;BMP180;42191;47.562;9.686;2022-07-29T02:04:51;96746.00;;;22.10
56286;BMP180;42191;47.562;9.686;2022-07-29T02:07:21;96739.00;;;22.10
56286;BMP180;42191;47.562;9.686;2022-07-29T02:09:49;96734.00;;;22.10
56286;BMP180;42191;47.562;9.686;2022-07-29T02:12:17;96732.00;;;22.10
56286;BMP180;42191;47.562;9.686;2022-07-29T02:14:51;96724.00;;;22.10
56286;BMP180;42191;47.562;9.686;2022-07-29T02:17:32;96717.00;;;22.10
56286;BMP180;42191;47.562;9.686;2022-07-29T02:20:01;96731.00;;;22.10
56286;BMP180;42191;47.562;9.686;2022-07-29T02:22:30;96728.00;;;22.00
56286;BMP180;42191;47.562;9.686;2022-07-29T02:24:58;96741.00;;;22.00
56286;BMP180;42191;47.562;9.686;2022-07-29T02:27:26;96744.00;;;22.00
56286;BMP180;42191;47.562;9.686;2022-07-29T02:29:54;96736.00;;;22.00
56286;BMP180;42191;47.562;9.686;2022-07-29T02:32:22;96729.00;;;22.00
56286;BMP180;42191;47.562;9.686;2022-07-29T02:34:50;96728.00;;;22.00
56286;BMP180;42191;47.562;9.686;2022-07-29T02:37:18;96722.00;;;22.00
56286;BMP180;42191;47.562;9.686;2022-07-29T02:39:45;96723.00;;;22.00
56286;BMP180;42191;47.562;9.686;2022-07-29T02:42:15;96713.00;;;21.90
56286;BMP180;42191;47.562;9.686;2022-07-29T02:44:42;96725.00;;;21.90
56286;BMP180;42191;47.562;9.686;2022-07-29T02:47:25;96706.00;;;21.90
56286;BMP180;42191;47.562;9.686;2022-07-29T02:49:55;96707.00;;;21.90
56286;BMP180;42191;47.562;9.686;2022-07-29T02:52:45;96715.00;;;21.90
56286;BMP180;42191;47.562;9.686;2022-07-29T02:55:55;96716.00;;;21.90
56286;BMP180;42191;47.562;9.686;2022-07-29T02:58:28;96715.00;;;21.80
56286;BMP180;42191;47.562;9.686;2022-07-29T03:01:01;96716.00;;;21.80
56286;BMP180;42191;47.562;9.686;2022-07-29T03:03:30;96712.00;;;21.80
56286;BMP180;42191;47.562;9.686;2022-07-29T03:06:01;96713.00;;;21.80
56286;BMP180;42191;47.562;9.686;2022-07-29T03:08:27;96717.00;;;21.80
56286;BMP180;42191;47.562;9.686;2022-07-29T03:10:54;96719.00;;;21.80
56286;BMP180;42191;47.562;9.686;2022-07-29T03:13:21;96729.00;;;21.70
56286;BMP180;42191;47.562;9.686;2022-07-29T03:15:47;96723.00;;;21.70
56286;BMP180;42191;47.562;9.686;2022-07-29T03:18:15;96731.00;;;21.70
56286;BMP180;42191;47.562;9.686;2022-07-29T03:20:41;96736.00;;;21.70
56286;BMP180;42191;47.562;9.686;2022-07-29T03:23:09;96728.00;;;21.70
56286;BMP180;42191;47.562;9.686;2022-07-29T03:25:35;96735.00;;;21.70
56286;BMP180;42191;47.562;9.686;2022-07-29T03:28:01;96732.00;;;21.80
56286;BMP180;42191;47.562;9.686;2022-07-29T03:30:27;96729.00;;;21.80
56286;BMP180;42191;47.562;9.686;2022-07-29T03:32:56;96729.00;;;21.80
56286;BMP180;42191;47.562;9.686;2022-07-29T03:35:22;96730.00;;;21.80
56286;BMP180;42191;47.562;9.686;2022-07-29T03:37:48;96725.00;;;21.80
56286;BMP180;42191;47.562;9.686;2022-07-29T03:40:20;96725.00;;;21.80
56286;BMP180;42191;47.562;9.686;2022-07-29T03:42:47;96728.00;;;21.80
56286;BMP180;42191;47.562;9.686;2022-07-29T03:45:17;96722.00;;;21.90
56286;BMP180;42191;47.562;9.686;2022-07-29T03:47:51;96726.00;;;21.90
56286;BMP180;42191;47.562;9.686;2022-07-29T03:50:20;96730.00;;;21.90
56286;BMP180;42191;47.562;9.686;2022-07-29T03:52:47;96729.00;;;21.90
56286;BMP180;42191;47.562;9.686;2022-07-29T03:55:15;96724.00;;;22.00
56286;BMP180;42191;47.562;9.686;2022-07-29T03:57:42;96739.00;;;22.00
56286;BMP180;42191;47.562;9.686;2022-07-29T04:00:10;96744.00;;;22.00
56286;BMP180;42191;47.562;9.686;2022-07-29T04:02:37;96734.00;;;22.10
56286;BMP180;42191;47.562;9.686;2022-07-29T04:05:04;96745.00;;;22.10
56286;BMP180;42191;47.562;9.686;2022-07-29T04:07:30;96751.00;;;22.10
56286;BMP180;42191;47.562;9.686;2022-07-29T04:09:57;96746.00;;;22.20
56286;BMP180;42191;47.562;9.686;2022-07-29T04:12:23;96742.00;;;22.20
56286;BMP180;42191;47.562;9.686;2022-07-29T04:14:49;96750.00;;;22.30
56286;BMP180;42191;47.562;9.686;2022-07-29T04:17:15;96745.00;;;22.30
56286;BMP180;42191;47.562;9.686;2022-07-29T04:19:42;96752.00;;;22.40
56286;BMP180;42191;47.562;9.686;2022-07-29T04:22:08;96750.00;;;22.40
56286;BMP180;42191;47.562;9.686;2022-07-29T04:24:35;96750.00;;;22.50
56286;BMP180;42191;47.562;9.686;2022-07-29T04:27:01;96754.00;;;22.50
56286;BMP180;42191;47.562;9.686;2022-07-29T04:29:27;96754.00;;;22.50
56286;BMP180;42191;47.562;9.686;2022-07-29T04:31:53;96755.00;;;22.60
56286;BMP180;42191;47.562;9.686;2022-07-29T04:34:19;96764.00;;;22.60
56286;BMP180;42191;47.562;9.686;2022-07-29T04:36:45;96754.00;;;22.70
56286;BMP180;42191;47.562;9.686;2022-07-29T04:39:11;96762.00;;;22.70
56286;BMP180;42191;47.562;9.686;2022-07-29T04:41:38;96766.00;;;22.80
56286;BMP180;42191;47.562;9.686;2022-07-29T04:44:04;96771.00;;;22.80
56286;BMP180;42191;47.562;9.686;2022-07-29T04:46:31;96764.00;;;22.80
56286;BMP180;42191;47.562;9.686;2022-07-29T04:48:57;96761.00;;;22.80
56286;BMP180;42191;47.562;9.686;2022-07-29T04:51:26;96759.00;;;22.80
56286;BMP180;42191;47.562;9.686;2022-07-29T04:53:52;96767.00;;;22.80
56286;BMP180;42191;47.562;9.686;2022-07-29T04:56:18;96767.00;;;22.80
56286;BMP180;42191;47.562;9.686;2022-07-29T04:58:52;96754.00;;;22.80
56286;BMP180;42191;47.562;9.686;2022-07-29T05:01:36;96758.00;;;22.80
56286;BMP180;42191;47.562;9.686;2022-07-29T05:04:05;96759.00;;;22.90
56286;BMP180;42191;47.562;9.686;2022-07-29T05:06:49;96770.00;;;22.90
56286;BMP180;42191;47.562;9.686;2022-07-29T05:09:35;96772.00;;;22.90
56286;BMP180;42191;47.562;9.686;2022-07-29T05:12:16;96773.00;;;22.90
56286;BMP180;42191;47.562;9.686;2022-07-29T05:17:48;96777.00;;;23.00
56286;BMP180;42191;47.562;9.686;2022-07-29T05:20:14;96783.00;;;23.00
56286;BMP180;42191;47.562;9.686;2022-07-29T05:22:40;96786.00;;;23.00
56286;BMP180;42191;47.562;9.686;2022-07-29T05:25:06;96780.00;;;23.00
56286;BMP180;42191;47.562;9.686;2022-07-29T05:27:35;96782.00;;;23.00
56286;BMP180;42191;47.562;9.686;2022-07-29T05:30:03;96783.00;;;23.00
56286;BMP180;42191;47.562;9.686;2022-07-29T05:32:29;96791.00;;;23.00
56286;BMP180;42191;47.562;9.686;2022-07-29T05:34:55;96788.00;;;23.10
56286;BMP180;42191;47.562;9.686;2022-07-29T05:37:21;96790.00;;;23.00
56286;BMP180;42191;47.562;9.686;2022-07-29T05:39:47;96795.00;;;23.10
56286;BMP180;42191;47.562;9.686;2022-07-29T05:42:14;96803.00;;;23.10
56286;BMP180;42191;47.562;9.686;2022-07-29T05:44:40;96803.00;;;23.20
56286;BMP180;42191;47.562;9.686;2022-07-29T05:47:06;96806.00;;;23.20
56286;BMP180;42191;47.562;9.686;2022-07-29T05:49:32;96796.00;;;23.20
56286;BMP180;42191;47.562;9.686;2022-07-29T05:51:58;96803.00;;;23.30
56286;BMP180;42191;47.562;9.686;2022-07-29T05:54:25;96798.00;;;23.30
56286;BMP180;42191;47.562;9.686;2022-07-29T05:56:51;96805.00;;;23.30
56286;BMP180;42191;47.562;9.686;2022-07-29T05:59:17;96801.00;;;23.30
56286;BMP180;42191;47.562;9.686;2022-07-29T06:01:43;96800.00;;;23.30
56286;BMP180;42191;47.562;9.686;2022-07-29T06:04:09;96801.00;;;23.30
56286;BMP180;42191;47.562;9.686;2022-07-29T06:06:35;96797.00;;;23.40
56286;BMP180;42191;47.562;9.686;2022-07-29T06:09:02;96797.00;;;23.40
56286;BMP180;42191;47.562;9.686;2022-07-29T06:11:28;96792.00;;;23.40
56286;BMP180;42191;47.562;9.686;2022-07-29T06:13:54;96790.00;;;23.40
56286;BMP180;42191;47.562;9.686;2022-07-29T06:16:20;96779.00;;;23.40
56286;BMP180;42191;47.562;9.686;2022-07-29T06:18:46;96784.00;;;23.40
56286;BMP180;42191;47.562;9.686;2022-07-29T06:21:12;96784.00;;;23.40
56286;BMP180;42191;47.562;9.686;2022-07-29T06:23:39;96786.00;;;23.40
56286;BMP180;42191;47.562;9.686;2022-07-29T06:26:06;96788.00;;;23.40
56286;BMP180;42191;47.562;9.686;2022-07-29T06:28:32;96789.00;;;23.40
56286;BMP180;42191;47.562;9.686;2022-07-29T06:30:59;96788.00;;;23.40
56286;BMP180;42191;47.562;9.686;2022-07-29T06:33:25;96783.00;;;23.40
56286;BMP180;42191;47.562;9.686;2022-07-29T06:35:51;96779.00;;;23.40
56286;BMP180;42191;47.562;9.686;2022-07-29T06:38:17;96795.00;;;23.40
56286;BMP180;42191;47.562;9.686;2022-07-29T06:40:44;96795.00;;;23.40
56286;BMP180;42191;47.562;9.686;2022-07-29T06:43:46;96781.00;;;23.50
56286;BMP180;42191;47.562;9.686;2022-07-29T06:46:14;96797.00;;;23.60
56286;BMP180;42191;47.562;9.686;2022-07-29T06:48:41;96799.00;;;23.60
56286;BMP180;42191;47.562;9.686;2022-07-29T06:51:08;96804.00;;;23.70
56286;BMP180;42191;47.562;9.686;2022-07-29T06:53:35;96809.00;;;23.80
56286;BMP180;42191;47.562;9.686;2022-07-29T06:56:02;96804.00;;;23.90
56286;BMP180;42191;47.562;9.686;2022-07-29T06:58:29;96797.00;;;24.00
56286;BMP180;42191;47.562;9.686;2022-07-29T07:00:57;96803.00;;;24.20
56286;BMP180;42191;47.562;9.686;2022-07-29T07:03:23;96808.00;;;24.30
56286;BMP180;42191;47.562;9.686;2022-07-29T07:05:51;96800.00;;;24.40
56286;BMP180;42191;47.562;9.686;2022-07-29T07:08:17;96807.00;;;24.50
56286;BMP180;42191;47.562;9.686;2022-07-29T07:10:43;96806.00;;;24.60
56286;BMP180;42191;47.562;9.686;2022-07-29T07:13:10;96808.00;;;24.70
56286;BMP180;42191;47.562;9.686;2022-07-29T07:15:36;96795.00;;;24.80
56286;BMP180;42191;47.562;9.686;2022-07-29T07:18:03;96790.00;;;24.90
56286;BMP180;42191;47.562;9.686;2022-07-29T07:20:29;96785.00;;;25.00
56286;BMP180;42191;47.562;9.686;2022-07-29T07:22:56;96793.00;;;25.10
56286;BMP180;42191;47.562;9.686;2022-07-29T07:25:22;96792.00;;;25.10
56286;BMP180;42191;47.562;9.686;2022-07-29T07:27:48;96806.00;;;25.20
56286;BMP180;42191;47.562;9.686;2022-07-29T07:30:14;96796.00;;;25.30
56286;BMP180;42191;47.562;9.686;2022-07-29T07:32:40;96798.00;;;25.50
56286;BMP180;42191;47.562;9.686;2022-07-29T07:35:08;96798.00;;;25.60
56286;BMP180;42191;47.562;9.686;2022-07-29T07:37:35;96800.00;;;25.80
56286;BMP180;42191;47.562;9.686;2022-07-29T07:40:02;96813.00;;;25.90
56286;BMP180;42191;47.562;9.686;2022-07-29T07:42:28;96805.00;;;26.10
56286;BMP180;42191;47.562;9.686;2022-07-29T07:44:54;96820.00;;;26.20
56286;BMP180;42191;47.562;9.686;2022-07-29T07:47:20;96813.00;;;26.30
56286;BMP180;42191;47.562;9.686;2022-07-29T07:49:47;96826.00;;;26.50
56286;BMP180;42191;47.562;9.686;2022-07-29T07:52:15;96832.00;;;26.60
56286;BMP180;42191;47.562;9.686;2022-07-29T07:54:41;96836.00;;;26.70
56286;BMP180;42191;47.562;9.686;2022-07-29T07:57:09;96842.00;;;26.80
56286;BMP180;42191;47.562;9.686;2022-07-29T07:59:35;96845.00;;;26.90
56286;BMP180;42191;47.562;9.686;2022-07-29T08:02:01;96841.00;;;27.00
56286;BMP180;42191;47.562;9.686;2022-07-29T08:04:27;96849.00;;;27.10
56286;BMP180;42191;47.562;9.686;2022-07-29T08:06:54;96859.00;;;27.10
56286;BMP180;42191;47.562;9.686;2022-07-29T08:09:21;96867.00;;;27.20
56286;BMP180;42191;47.562;9.686;2022-07-29T08:11:47;96870.00;;;27.30
56286;BMP180;42191;47.562;9.686;2022-07-29T08:14:14;96873.00;;;27.40
56286;BMP180;42191;47.562;9.686;2022-07-29T08:16:40;96876.00;;;27.50
56286;BMP180;42191;47.562;9.686;2022-07-29T08:19:08;96882.00;;;27.50
56286;BMP180;42191;47.562;9.686;2022-07-29T08:21:34;96882.00;;;27.50
56286;BMP180;42191;47.562;9.686;2022-07-29T08:24:00;96875.00;;;27.50
56286;BMP180;42191;47.562;9.686;2022-07-29T08:26:45;96879.00;;;27.60
56286;BMP180;42191;47.562;9.686;2022-07-29T08:29:12;96883.00;;;27.60
56286;BMP180;42191;47.562;9.686;2022-07-29T08:31:38;96895.00;;;27.60
56286;BMP180;42191;47.562;9.686;2022-07-29T08:34:05;96895.00;;;27.70
56286;BMP180;42191;47.562;9.686;2022-07-29T08:36:33;96896.00;;;27.80
56286;BMP180;42191;47.562;9.686;2022-07-29T08:38:59;96893.00;;;27.90
56286;BMP180;42191;47.562;9.686;2022-07-29T08:41:26;96893.00;;;28.00
56286;BMP180;42191;47.562;9.686;2022-07-29T08:43:53;96903.00;;;28.10
56286;BMP180;42191;47.562;9.686;2022-07-29T08:46:20;96892.00;;;28.20
56286;BMP180;42191;47.562;9.686;2022-07-29T08:48:47;96886.00;;;28.30
56286;BMP180;42191;47.562;9.686;2022-07-29T08:51:15;96885.00;;;28.40
56286;BMP180;42191;47.562;9.686;2022-07-29T08:53:46;96897.00;;;28.50
56286;BMP180;42191;47.562;9.686;2022-07-29T08:56:15;96882.00;;;28.50
56286;BMP180;42191;47.562;9.686;2022-07-29T08:58:46;96879.00;;;28.60
56286;BMP180;42191;47.562;9.686;2022-07-29T09:01:16;96877.00;;;28.60
56286;BMP180;42191;47.562;9.686;2022-07-29T09:03:44;96883.00;;;28.70
56286;BMP180;42191;47.562;9.686;2022-07-29T09:06:17;96885.00;;;28.70
56286;BMP180;42191;47.562;9.686;2022-07-29T09:08:44;96885.00;;;28.70
56286;BMP180;42191;47.562;9.686;2022-07-29T09:11:11;96892.00;;;28.70
56286;BMP180;42191;47.562;9.686;2022-07-29T09:13:38;96900.00;;;28.70
56286;BMP180;42191;47.562;9.686;2022-07-29T09:16:05;96908.00;;;28.70
56286;BMP180;42191;47.562;9.686;2022-07-29T09:18:42;96901.00;;;28.70
56286;BMP180;42191;47.562;9.686;2022-07-29T09:21:10;96894.00;;;28.70
56286;BMP180;42191;47.562;9.686;2022-07-29T09:24:08;96910.00;;;28.70
56286;BMP180;42191;47.562;9.686;2022-07-29T09:26:37;96912.00;;;28.60
56286;BMP180;42191;47.562;9.686;2022-07-29T09:29:18;96908.00;;;28.50
56286;BMP180;42191;47.562;9.686;2022-07-29T09:31:47;96911.00;;;28.50
56286;BMP180;42191;47.562;9.686;2022-07-29T09:34:16;96903.00;;;28.40
56286;BMP180;42191;47.562;9.686;2022-07-29T09:36:43;96920.00;;;28.30
56286;BMP180;42191;47.562;9.686;2022-07-29T09:39:09;96924.00;;;28.30
56286;BMP180;42191;47.562;9.686;2022-07-29T09:41:50;96917.00;;;28.20
56286;BMP180;42191;47.562;9.686;2022-07-29T09:44:19;96917.00;;;28.10
56286;BMP180;42191;47.562;9.686;2022-07-29T09:49:20;96902.00;;;28.00
56286;BMP180;42191;47.562;9.686;2022-07-29T09:51:46;96907.00;;;27.90
56286;BMP180;42191;47.562;9.686;2022-07-29T09:54:26;96915.00;;;27.90
56286;BMP180;42191;47.562;9.686;2022-07-29T09:56:54;96919.00;;;27.80
56286;BMP180;42191;47.562;9.686;2022-07-29T09:59:21;96917.00;;;27.80
56286;BMP180;42191;47.562;9.686;2022-07-29T10:01:50;96915.00;;;27.80
56286;BMP180;42191;47.562;9.686;2022-07-29T10:04:16;96910.00;;;27.70
56286;BMP180;42191;47.562;9.686;2022-07-29T10:09:23;96907.00;;;27.70
56286;BMP180;42191;47.562;9.686;2022-07-29T10:12:11;96906.00;;;27.60
56286;BMP180;42191;47.562;9.686;2022-07-29T10:14:40;96882.00;;;27.60
56286;BMP180;42191;47.562;9.686;2022-07-29T10:17:08;96873.00;;;27.60
56286;BMP180;42191;47.562;9.686;2022-07-29T10:19:36;96877.00;;;27.60
56286;BMP180;42191;47.562;9.686;2022-07-29T10:22:05;96877.00;;;27.60
56286;BMP180;42191;47.562;9.686;2022-07-29T10:24:32;96880.00;;;27.60
56286;BMP180;42191;47.562;9.686;2022-07-29T10:27:01;96877.00;;;27.70
56286;BMP180;42191;47.562;9.686;2022-07-29T10:29:28;96867.00;;;27.70
56286;BMP180;42191;47.562;9.686;2022-07-29T10:35:15;96865.00;;;27.70
56286;BMP180;42191;47.562;9.686;2022-07-29T10:38:07;96861.00;;;27.70
56286;BMP180;42191;47.562;9.686;2022-07-29T10:40:46;96860.00;;;27.60
56286;BMP180;42191;47.562;9.686;2022-07-29T10:43:35;96869.00;;;27.60
56286;BMP180;42191;47.562;9.686;2022-07-29T10:46:03;96874.00;;;27.60
56286;BMP180;42191;47.562;9.686;2022-07-29T10:48:30;96872.00;;;27.50
56286;BMP180;42191;47.562;9.686;2022-07-29T10:51:01;96871.00;;;27.50
56286;BMP180;42191;47.562;9.686;2022-07-29T10:53:51;96869.00;;;27.50
56286;BMP180;42191;47.562;9.686;2022-07-29T10:56:29;96864.00;;;27.60
56286;BMP180;42191;47.562;9.686;2022-07-29T11:01:44;96864.00;;;27.70
56286;BMP180;42191;47.562;9.686;2022-07-29T11:04:10;96860.00;;;27.70
56286;BMP180;42191;47.562;9.686;2022-07-29T11:09:24;96858.00;;;27.90
56286;BMP180;42191;47.562;9.686;2022-07-29T11:11:50;96858.00;;;28.00
56286;BMP180;42191;47.562;9.686;2022-07-29T11:17:17;96858.00;;;28.20
56286;BMP180;42191;47.562;9.686;2022-07-29T11:19:46;96860.00;;;28.30
56286;BMP180;42191;47.562;9.686;2022-07-29T11:22:34;96849.00;;;28.40
56286;BMP180;42191;47.562;9.686;2022-07-29T11:25:17;96844.00;;;28.50
56286;BMP180;42191;47.562;9.686;2022-07-29T11:27:46;96850.00;;;28.80
56286;BMP180;42191;47.562;9.686;2022-07-29T11:30:12;96840.00;;;28.90
56286;BMP180;42191;47.562;9.686;2022-07-29T11:32:40;96844.00;;;29.10
56286;BMP180;42191;47.562;9.686;2022-07-29T11:35:20;96841.00;;;29.30
56286;BMP180;42191;47.562;9.686;2022-07-29T11:38:24;96839.00;;;29.50
56286;BMP180;42191;47.562;9.686;2022-07-29T11:41:25;96845.00;;;29.50
56286;BMP180;42191;47.562;9.686;2022-07-29T11:43:59;96846.00;;;29.50
56286;BMP180;42191;47.562;9.686;2022-07-29T11:46:45;96837.00;;;29.50
56286;BMP180;42191;47.562;9.686;2022-07-29T11:49:25;96834.00;;;29.60
56286;BMP180;42191;47.562;9.686;2022-07-29T11:51:56;96833.00;;;29.70
56286;BMP180;42191;47.562;9.686;2022-07-29T11:54:31;96834.00;;;29.80
56286;BMP180;42191;47.562;9.686;2022-07-29T11:56:58;96833.00;;;30.00
56286;BMP180;42191;47.562;9.686;2022-07-29T11:59:25;96837.00;;;30.20
56286;BMP180;42191;47.562;9.686;2022-07-29T12:01:56;96828.00;;;30.30
56286;BMP180;42191;47.562;9.686;2022-07-29T12:04:22;96826.00;;;30.40
56286;BMP180;42191;47.562;9.686;2022-07-29T12:06:53;96820.00;;;30.60
56286;BMP180;42191;47.562;9.686;2022-07-29T12:09:20;96815.00;;;30.80
56286;BMP180;42191;47.562;9.686;2022-07-29T12:11:47;96812.00;;;31.10
56286;BMP180;42191;47.562;9.686;2022-07-29T12:14:31;96821.00;;;31.40
56286;BMP180;42191;47.562;9.686;2022-07-29T12:16:58;96816.00;;;31.60
56286;BMP180;42191;47.562;9.686;2022-07-29T12:19:25;96818.00;;;31.80
56286;BMP180;42191;47.562;9.686;2022-07-29T12:21:53;96818.00;;;31.80
56286;BMP180;42191;47.562;9.686;2022-07-29T12:24:20;96824.00;;;31.80
56286;BMP180;42191;47.562;9.686;2022-07-29T12:26:55;96828.00;;;31.80
56286;BMP180;42191;47.562;9.686;2022-07-29T12:29:22;96825.00;;;31.80
56286;BMP180;42191;47.562;9.686;2022-07-29T12:31:53;96829.00;;;31.80
56286;BMP180;42191;47.562;9.686;2022-07-29T12:34:26;96824.00;;;31.70
56286;BMP180;42191;47.562;9.686;2022-07-29T12:36:52;96827.00;;;31.60
56286;BMP180;42191;47.562;9.686;2022-07-29T12:39:18;96827.00;;;31.50
56286;BMP180;42191;47.562;9.686;2022-07-29T12:41:45;96825.00;;;31.40
56286;BMP180;42191;47.562;9.686;2022-07-29T12:44:12;96825.00;;;31.40
56286;BMP180;42191;47.562;9.686;2022-07-29T12:46:38;96830.00;;;31.30
56286;BMP180;42191;47.562;9.686;2022-07-29T12:49:04;96821.00;;;31.30
56286;BMP180;42191;47.562;9.686;2022-07-29T12:51:35;96809.00;;;31.30
56286;BMP180;42191;47.562;9.686;2022-07-29T12:54:14;96826.00;;;31.40
56286;BMP180;42191;47.562;9.686;2022-07-29T12:56:42;96819.00;;;31.50
56286;BMP180;42191;47.562;9.686;2022-07-29T12:59:19;96822.00;;;31.50
56286;BMP180;42191;47.562;9.686;2022-07-29T13:01:51;96820.00;;;31.60
56286;BMP180;42191;47.562;9.686;2022-07-29T13:04:32;96822.00;;;31.50
56286;BMP180;42191;47.562;9.686;2022-07-29T13:07:06;96814.00;;;31.50
56286;BMP180;42191;47.562;9.686;2022-07-29T13:09:42;96818.00;;;31.50
56286;BMP180;42191;47.562;9.686;2022-07-29T13:12:11;96812.00;;;31.40
56286;BMP180;42191;47.562;9.686;2022-07-29T13:14:50;96811.00;;;31.40
56286;BMP180;42191;47.562;9.686;2022-07-29T13:17:23;96818.00;;;31.30
56286;BMP180;42191;47.562;9.686;2022-07-29T13:19:50;96812.00;;;31.20
56286;BMP180;42191;47.562;9.686;2022-07-29T13:22:20;96815.00;;;31.10
56286;BMP180;42191;47.562;9.686;2022-07-29T13:27:19;96833.00;;;30.80
56286;BMP180;42191;47.562;9.686;2022-07-29T13:29:46;96831.00;;;30.70
56286;BMP180;42191;47.562;9.686;2022-07-29T13:32:13;96838.00;;;30.70
56286;BMP180;42191;47.562;9.686;2022-07-29T13:34:39;96835.00;;;30.60
56286;BMP180;42191;47.562;9.686;2022-07-29T13:37:06;96829.00;;;30.50
56286;BMP180;42191;47.562;9.686;2022-07-29T13:39:32;96829.00;;;30.60
56286;BMP180;42191;47.562;9.686;2022-07-29T13:41:58;96841.00;;;30.60
56286;BMP180;42191;47.562;9.686;2022-07-29T13:44:25;96846.00;;;30.60
56286;BMP180;42191;47.562;9.686;2022-07-29T13:46:51;96843.00;;;30.70
56286;BMP180;42191;47.562;9.686;2022-07-29T13:49:17;96847.00;;;30.80
56286;BMP180;42191;47.562;9.686;2022-07-29T13:51:43;96848.00;;;30.80
56286;BMP180;42191;47.562;9.686;2022-07-29T13:54:09;96848.00;;;30.80
56286;BMP180;42191;47.562;9.686;2022-07-29T13:56:35;96841.00;;;30.90
56286;BMP180;42191;47.562;9.686;2022-07-29T13:59:01;96843.00;;;31.00
56286;BMP180;42191;47.562;9.686;2022-07-29T14:01:27;96837.00;;;31.10
56286;BMP180;42191;47.562;9.686;2022-07-29T14:03:53;96843.00;;;31.20
56286;BMP180;42191;47.562;9.686;2022-07-29T14:06:19;96846.00;;;31.10
56286;BMP180;42191;47.562;9.686;2022-07-29T14:08:45;96846.00;;;31.10
56286;BMP180;42191;47.562;9.686;2022-07-29T14:11:12;96843.00;;;31.10
56286;BMP180;42191;47.562;9.686;2022-07-29T14:13:38;96855.00;;;31.00
56286;BMP180;42191;47.562;9.686;2022-07-29T14:16:04;96850.00;;;31.00
56286;BMP180;42191;47.562;9.686;2022-07-29T14:18:30;96852.00;;;30.90
56286;BMP180;42191;47.562;9.686;2022-07-29T14:20:57;96847.00;;;30.80
56286;BMP180;42191;47.562;9.686;2022-07-29T14:23:23;96857.00;;;30.60
56286;BMP180;42191;47.562;9.686;2022-07-29T14:25:49;96866.00;;;30.50
56286;BMP180;42191;47.562;9.686;2022-07-29T14:28:15;96863.00;;;30.40
56286;BMP180;42191;47.562;9.686;2022-07-29T14:30:41;96873.00;;;30.30
56286;BMP180;42191;47.562;9.686;2022-07-29T14:33:07;96872.00;;;30.20
56286;BMP180;42191;47.562;9.686;2022-07-29T14:35:33;96884.00;;;30.10
56286;BMP180;42191;47.562;9.686;2022-07-29T14:37:59;96883.00;;;30.00
56286;BMP180;42191;47.562;9.686;2022-07-29T14:40:26;96889.00;;;29.90
56286;BMP180;42191;47.562;9.686;2022-07-29T14:42:52;96891.00;;;29.80
56286;BMP180;42191;47.562;9.686;2022-07-29T14:45:18;96895.00;;;29.80
56286;BMP180;42191;47.562;9.686;2022-07-29T14:47:44;96899.00;;;29.70
56286;BMP180;42191;47.562;9.686;2022-07-29T14:50:10;96892.00;;;29.70
56286;BMP180;42191;47.562;9.686;2022-07-29T14:52:37;96901.00;;;29.60
56286;BMP180;42191;47.562;9.686;2022-07-29T14:55:04;96900.00;;;29.60
56286;BMP180;42191;47.562;9.686;2022-07-29T14:57:30;96897.00;;;29.60
56286;BMP180;42191;47.562;9.686;2022-07-29T14:59:56;96907.00;;;29.50